Time;durP1;ratioP1;P1;durP2;ratioP2;P2;SDS_P1;SDS_P2;PMS_P1;PMS_P2;Temp;Humidity;BMP_temperature;BMP_pressure;BME280_temperature;BME280_humidity;BME280_pressure;Samples;Min_cycle;Max_cycle;Signal;HPM_P1;HPM_P2
2022/07/28 00:00:00;;;;;;;5.57;3.93;;;;;;;18.26;100.00;95969.97;5019291;28;20315;-80
2022/07/28 00:02:29;;;;;;;4.30;3.80;;;;;;;18.27;100.00;95966.13;5021281;28;20203;-79
2022/07/28 00:04:56;;;;;;;3.67;3.37;;;;;;;18.36;100.00;95975.34;5022251;28;20211;-80
2022/07/28 00:07:23;;;;;;;4.83;3.70;;;;;;;18.28;100.00;95973.22;5023260;28;20245;-80
2022/07/28 00:09:50;;;;;;;5.33;3.60;;;;;;;18.20;100.00;95971.13;5025098;28;20310;-80
2022/07/28 00:12:18;;;;;;;5.20;3.70;;;;;;;18.13;100.00;95976.88;5058990;28;20286;-80
2022/07/28 00:14:45;;;;;;;4.43;3.80;;;;;;;18.13;100.00;95974.97;5022380;28;20209;-80
2022/07/28 00:17:12;;;;;;;5.07;3.60;;;;;;;18.12;100.00;95980.72;5027827;28;20237;-79
2022/07/28 00:19:40;;;;;;;3.80;3.50;;;;;;;18.15;100.00;95978.25;5020345;28;20241;-79
2022/07/28 00:22:08;;;;;;;4.80;4.13;;;;;;;18.09;100.00;95979.41;5024341;28;20304;-80
2022/07/28 00:24:36;;;;;;;4.00;3.60;;;;;;;18.04;100.00;95979.44;5026924;28;20207;-79
2022/07/28 00:27:05;;;;;;;4.87;3.63;;;;;;;18.00;100.00;95972.91;5019880;28;20223;-80
2022/07/28 00:29:32;;;;;;;5.27;3.97;;;;;;;18.01;100.00;95974.56;5022275;28;20215;-80
2022/07/28 00:31:59;;;;;;;4.77;3.90;;;;;;;18.02;100.00;95975.38;5023538;28;20297;-79
2022/07/28 00:34:27;;;;;;;4.47;4.03;;;;;;;18.08;100.00;95979.69;5021396;28;20199;-80
2022/07/28 00:36:55;;;;;;;4.40;3.67;;;;;;;18.05;100.00;95981.06;5057082;28;20297;-80
2022/07/28 00:39:22;;;;;;;5.37;4.00;;;;;;;17.93;100.00;95966.97;5025697;28;20209;-80
2022/07/28 00:41:49;;;;;;;6.70;3.67;;;;;;;17.86;100.00;95971.13;5024191;28;20214;-79
2022/07/28 00:44:16;;;;;;;6.00;3.73;;;;;;;17.68;100.00;95976.19;5023559;28;20237;-79
2022/07/28 00:46:44;;;;;;;4.37;3.97;;;;;;;17.54;100.00;95974.31;5020456;28;20227;-79
2022/07/28 00:49:14;;;;;;;4.67;4.17;;;;;;;17.52;100.00;95977.34;5023095;28;20219;-79
2022/07/28 00:51:41;;;;;;;4.07;3.67;;;;;;;17.44;100.00;95977.13;5028508;28;20297;-79
2022/07/28 00:54:09;;;;;;;4.60;3.87;;;;;;;17.37;100.00;95974.69;5016832;28;20266;-79
2022/07/28 00:56:36;;;;;;;4.40;3.77;;;;;;;17.33;100.00;95982.66;5023326;28;20269;-80
2022/07/28 00:59:04;;;;;;;4.10;3.73;;;;;;;17.30;100.00;95985.94;5022384;28;20230;-79
2022/07/28 01:01:31;;;;;;;4.07;3.70;;;;;;;17.34;100.00;95987.00;5021314;28;20211;-80
2022/07/28 01:04:01;;;;;;;4.20;3.80;;;;;;;17.41;100.00;95973.06;5013389;28;20271;-80
2022/07/28 01:06:54;;;;;;;4.67;3.73;;;;;;;17.45;100.00;95970.56;5024218;28;20218;-79
2022/07/28 01:09:41;;;;;;;6.03;3.73;;;;;;;17.36;100.00;95973.88;5016140;28;20278;-79
2022/07/28 01:12:18;;;;;;;6.70;4.17;;;;;;;17.25;100.00;95976.97;5037564;28;20238;-79
2022/07/28 01:14:49;;;;;;;4.10;3.70;;;;;;;17.22;100.00;95970.16;5021901;28;20215;-79
2022/07/28 01:17:26;;;;;;;7.30;3.87;;;;;;;17.19;100.00;95973.44;5020831;28;20207;-80
2022/07/28 01:20:04;;;;;;;4.23;3.80;;;;;;;17.07;100.00;95970.25;5024818;28;20243;-79
2022/07/28 01:22:36;;;;;;;4.93;4.33;;;;;;;16.99;100.00;95958.00;5018328;28;20221;-79
2022/07/28 01:25:16;;;;;;;4.03;3.70;;;;;;;16.96;100.00;95963.19;5019526;28;20214;-79
2022/07/28 01:28:06;;;;;;;4.90;4.07;;;;;;;16.96;100.00;95960.47;5028902;28;20203;-79
2022/07/28 01:30:41;;;;;;;6.60;4.53;;;;;;;16.92;100.00;95957.50;5052736;28;20292;-80
2022/07/28 01:33:16;;;;;;;6.90;4.60;;;;;;;17.00;100.00;95954.19;5016606;28;20333;-79
2022/07/28 01:35:47;;;;;;;5.17;3.90;;;;;;;17.02;100.00;95956.59;5020503;28;20217;-79
2022/07/28 01:38:17;;;;;;;7.27;4.30;;;;;;;16.96;100.00;95952.28;5023388;28;20215;-79
2022/07/28 01:40:47;;;;;;;7.80;4.20;;;;;;;16.94;100.00;95949.00;5020445;28;20207;-79
2022/07/28 01:43:18;;;;;;;5.20;4.50;;;;;;;16.89;100.00;95946.31;5012908;28;20194;-79
2022/07/28 01:45:47;;;;;;;5.43;4.10;;;;;;;16.90;100.00;95950.69;5019778;28;20255;-79
2022/07/28 01:48:17;;;;;;;6.23;4.30;;;;;;;16.84;100.00;95954.53;5024387;28;20218;-79
2022/07/28 01:50:47;;;;;;;5.90;4.17;;;;;;;16.89;100.00;95951.78;5021515;28;20221;-79
2022/07/28 01:53:16;;;;;;;9.97;4.30;;;;;;;16.94;100.00;95951.72;5021997;28;20207;-79
2022/07/28 01:55:44;;;;;;;5.13;4.17;;;;;;;16.94;100.00;95946.28;5017797;28;20234;-79
2022/07/28 01:58:14;;;;;;;5.77;4.20;;;;;;;16.84;100.00;95949.09;5011917;28;20203;-79
2022/07/28 02:00:43;;;;;;;6.37;4.60;;;;;;;16.78;100.00;95944.72;5025491;28;20300;-79
2022/07/28 02:03:13;;;;;;;5.20;4.03;;;;;;;16.80;100.00;95945.25;5052187;28;20215;-79
2022/07/28 02:05:42;;;;;;;5.80;4.40;;;;;;;16.79;100.00;95949.91;5015189;28;20696;-79
2022/07/28 02:08:11;;;;;;;5.63;4.17;;;;;;;16.83;100.00;95936.53;5020058;28;20210;-79
2022/07/28 02:10:42;;;;;;;5.90;4.23;;;;;;;16.88;100.00;95936.50;5037428;28;20203;-79
2022/07/28 02:13:11;;;;;;;3.93;3.60;;;;;;;16.89;100.00;95938.94;5021017;28;20265;-79
2022/07/28 02:15:40;;;;;;;4.30;3.90;;;;;;;16.86;100.00;95930.50;5016798;28;20234;-79
2022/07/28 02:18:09;;;;;;;5.17;4.43;;;;;;;16.83;100.00;95937.34;5050343;28;20219;-79
2022/07/28 02:20:39;;;;;;;5.10;4.30;;;;;;;16.85;100.00;95928.88;5020092;28;20302;-79
2022/07/28 02:23:08;;;;;;;4.03;3.73;;;;;;;16.87;100.00;95926.69;5023386;28;20213;-79
2022/07/28 02:25:37;;;;;;;5.73;4.50;;;;;;;16.91;100.00;95916.88;5020914;28;20198;-79
2022/07/28 02:28:07;;;;;;;7.37;4.03;;;;;;;16.97;100.00;95915.72;5024768;28;20294;-79
2022/07/28 02:30:38;;;;;;;6.93;4.07;;;;;;;16.90;100.00;95931.59;5023364;28;20203;-79
2022/07/28 02:33:11;;;;;;;4.37;3.97;;;;;;;16.86;100.00;95930.50;5018475;28;20211;-79
2022/07/28 02:35:45;;;;;;;5.67;4.00;;;;;;;16.88;100.00;95933.78;5012709;28;20225;-79
2022/07/28 02:38:19;;;;;;;5.50;3.73;;;;;;;16.91;100.00;95927.78;5012242;28;20216;-79
2022/07/28 02:40:49;;;;;;;6.73;4.00;;;;;;;16.89;100.00;95935.41;5035524;28;20246;-79
2022/07/28 02:43:24;;;;;;;6.47;4.27;;;;;;;16.89;100.00;95936.22;5051468;28;20203;-79
2022/07/28 02:45:53;;;;;;;6.63;4.10;;;;;;;16.83;100.00;95936.53;5019804;28;20237;-79
2022/07/28 02:48:26;;;;;;;5.87;4.23;;;;;;;16.83;100.00;95936.53;5019939;28;20214;-79
2022/07/28 02:50:56;;;;;;;4.67;4.13;;;;;;;16.77;100.00;95929.44;5022036;28;20206;-79
2022/07/28 02:53:24;;;;;;;4.43;3.83;;;;;;;16.77;100.00;95938.44;5043398;28;20211;-79
2022/07/28 02:55:53;;;;;;;6.17;4.43;;;;;;;16.70;100.00;95937.13;5017054;28;20218;-79
2022/07/28 02:58:22;;;;;;;4.67;3.73;;;;;;;16.70;100.00;95942.56;5056504;28;20195;-79
2022/07/28 03:00:51;;;;;;;4.90;4.27;;;;;;;16.69;100.00;95943.66;5025871;28;20202;-80
2022/07/28 03:03:19;;;;;;;7.83;4.17;;;;;;;16.73;100.00;95944.75;5016895;28;20217;-79
2022/07/28 03:05:46;;;;;;;6.03;4.23;;;;;;;16.77;100.00;95946.63;5018801;28;20207;-79
2022/07/28 03:08:16;;;;;;;4.37;3.93;;;;;;;16.76;100.00;95946.94;5022946;28;20202;-79
2022/07/28 03:10:43;;;;;;;5.37;4.03;;;;;;;16.76;100.00;95950.44;5017610;28;20229;-79
2022/07/28 03:13:10;;;;;;;6.00;4.23;;;;;;;16.70;100.00;95951.56;5024157;28;20203;-79
2022/07/28 03:15:39;;;;;;;6.17;3.90;;;;;;;16.61;100.00;95945.06;5023248;28;20202;-80
2022/07/28 03:18:07;;;;;;;6.27;5.10;;;;;;;16.60;100.00;95954.28;5020053;28;20207;-79
2022/07/28 03:20:34;;;;;;;6.30;4.20;;;;;;;16.57;100.00;95963.03;5019047;28;20218;-79
2022/07/28 03:23:02;;;;;;;5.23;4.27;;;;;;;16.49;100.00;95953.53;5052723;28;20213;-79
2022/07/28 03:25:34;;;;;;;7.33;4.20;;;;;;;16.46;100.00;95958.72;5020933;28;20214;-79
2022/07/28 03:28:03;;;;;;;6.07;5.13;;;;;;;16.43;100.00;95962.78;5021489;28;20215;-79
2022/07/28 03:30:36;;;;;;;8.87;5.43;;;;;;;16.39;100.00;95959.00;5022741;28;20211;-79
2022/07/28 03:33:03;;;;;;;6.20;4.80;;;;;;;16.40;100.00;95959.81;5021866;28;20290;-79
2022/07/28 03:35:32;;;;;;;5.47;4.93;;;;;;;16.41;100.00;95967.72;5024134;28;20226;-79
2022/07/28 03:38:04;;;;;;;6.27;4.23;;;;;;;16.53;100.00;95973.69;5021238;28;20219;-79
2022/07/28 03:40:36;;;;;;;4.40;4.00;;;;;;;16.49;100.00;95966.34;5023305;28;20203;-79
2022/07/28 03:43:07;;;;;;;10.90;5.07;;;;;;;16.38;100.00;95962.81;5027125;28;20191;-79
2022/07/28 03:45:35;;;;;;;7.33;4.50;;;;;;;16.32;100.00;95974.81;5020026;28;20220;-79
2022/07/28 03:48:02;;;;;;;9.07;4.53;;;;;;;16.35;100.00;95979.72;5020810;28;20222;-79
2022/07/28 03:50:31;;;;;;;6.23;4.30;;;;;;;16.27;100.00;95974.81;5024746;28;20199;-79
2022/07/28 03:53:00;;;;;;;6.50;4.50;;;;;;;16.36;100.00;95986.78;5022241;28;20229;-79
2022/07/28 03:55:27;;;;;;;6.10;4.60;;;;;;;16.35;100.00;95978.88;5056829;28;20203;-79
2022/07/28 03:57:56;;;;;;;4.77;4.10;;;;;;;16.35;100.00;95978.88;5017178;28;20199;-79
2022/07/28 04:00:24;;;;;;;8.60;4.40;;;;;;;16.39;100.00;95994.44;5052251;28;20261;-79
2022/07/28 04:02:51;;;;;;;6.37;4.87;;;;;;;16.33;100.00;95998.25;5022389;28;20198;-79
2022/07/28 04:05:19;;;;;;;7.40;4.87;;;;;;;16.28;100.00;95984.63;5050074;28;20235;-79
2022/07/28 04:07:46;;;;;;;5.80;4.77;;;;;;;16.35;100.00;96001.50;5023404;28;20219;-79
2022/07/28 04:10:15;;;;;;;4.83;4.20;;;;;;;16.30;100.00;95992.53;5024461;28;20207;-79
2022/07/28 04:12:50;;;;;;;6.20;4.53;;;;;;;16.19;100.00;96002.63;5021729;28;20211;-79
2022/07/28 04:15:19;;;;;;;4.60;4.07;;;;;;;16.15;100.00;96001.56;5024155;28;20203;-79
2022/07/28 04:17:47;;;;;;;7.00;4.67;;;;;;;16.17;100.00;96005.59;5017923;28;20223;-79
2022/07/28 04:20:15;;;;;;;5.23;4.63;;;;;;;16.15;100.00;96009.72;5021483;28;20241;-79
2022/07/28 04:22:42;;;;;;;5.43;4.80;;;;;;;16.05;100.00;96013.25;5022260;28;20252;-79
2022/07/28 04:25:11;;;;;;;4.33;4.00;;;;;;;16.07;100.00;96015.72;5024391;28;20290;-79
2022/07/28 04:27:38;;;;;;;5.97;5.13;;;;;;;16.01;100.00;96016.78;5022917;28;20288;-79
2022/07/28 04:30:08;;;;;;;5.20;4.67;;;;;;;15.98;100.00;96017.34;5022126;28;20282;-79
2022/07/28 04:32:37;;;;;;;4.77;4.30;;;;;;;16.05;100.00;96020.59;5010526;28;20221;-79
2022/07/28 04:35:05;;;;;;;5.20;4.73;;;;;;;16.10;100.00;96021.41;5020514;28;20257;-79
2022/07/28 04:37:32;;;;;;;6.00;4.57;;;;;;;16.06;100.00;96014.91;5016325;28;20266;-79
2022/07/28 04:39:59;;;;;;;7.20;4.40;;;;;;;16.04;100.00;96021.69;5055709;28;20213;-79
2022/07/28 04:42:26;;;;;;;7.70;5.13;;;;;;;16.08;100.00;96018.13;5021588;28;20206;-79
2022/07/28 04:44:53;;;;;;;4.70;4.07;;;;;;;16.11;100.00;96027.69;5040406;28;20257;-79
2022/07/28 04:47:20;;;;;;;5.00;4.47;;;;;;;16.10;100.00;96024.13;5032093;28;20226;-79
2022/07/28 04:49:49;;;;;;;5.23;4.73;;;;;;;16.12;100.00;96013.78;5023899;28;20242;-79
2022/07/28 04:52:16;;;;;;;7.33;4.80;;;;;;;16.15;100.00;96023.34;5024820;28;20206;-79
2022/07/28 04:54:43;;;;;;;5.73;4.80;;;;;;;16.19;100.00;96019.78;5022709;28;20288;-79
2022/07/28 04:57:10;;;;;;;6.53;4.67;;;;;;;16.16;100.00;96014.06;5035410;28;20219;-79
2022/07/28 04:59:38;;;;;;;5.80;4.43;;;;;;;16.13;100.00;96017.34;5049891;28;20203;-79
2022/07/28 05:02:06;;;;;;;5.90;4.70;;;;;;;16.14;100.00;96024.44;5022054;28;20207;-79
2022/07/28 05:04:33;;;;;;;5.50;4.77;;;;;;;16.14;100.00;96027.16;5027083;28;20210;-79
2022/07/28 05:07:01;;;;;;;6.97;4.33;;;;;;;16.16;100.00;96020.31;5024793;28;20219;-79
2022/07/28 05:09:28;;;;;;;7.80;4.90;;;;;;;16.21;100.00;96023.06;5018623;28;20302;-79
2022/07/28 05:11:55;;;;;;;6.37;5.23;;;;;;;16.24;100.00;96024.44;5022657;28;20229;-79
2022/07/28 05:14:22;;;;;;;7.87;5.03;;;;;;;16.16;100.00;96024.97;5024430;28;20204;-79
2022/07/28 05:16:49;;;;;;;5.80;5.30;;;;;;;16.18;100.00;96026.31;5013316;28;20235;-79
2022/07/28 05:19:16;;;;;;;6.20;4.50;;;;;;;16.23;100.00;96026.31;5021398;28;20236;-79
2022/07/28 05:21:43;;;;;;;6.17;4.80;;;;;;;16.26;100.00;96016.78;5024546;28;20210;-79
2022/07/28 05:24:12;;;;;;;5.57;4.60;;;;;;;16.23;100.00;96018.16;5022620;28;20203;-79
2022/07/28 05:26:40;;;;;;;6.07;4.73;;;;;;;16.19;100.00;96013.50;5030853;28;20210;-79
2022/07/28 05:29:07;;;;;;;6.20;4.70;;;;;;;16.25;100.00;96013.22;5016137;28;20209;-79
2022/07/28 05:31:34;;;;;;;6.23;5.03;;;;;;;16.28;100.00;96023.59;5026255;28;20209;-79
2022/07/28 05:34:01;;;;;;;6.13;4.97;;;;;;;16.20;100.00;96015.16;5022454;28;20397;-79
2022/07/28 05:36:28;;;;;;;6.43;4.93;;;;;;;16.19;100.00;96014.34;5019743;28;20247;-79
2022/07/28 05:38:55;;;;;;;7.30;4.43;;;;;;;16.24;100.00;96016.25;5020542;28;20215;-79
2022/07/28 05:41:23;;;;;;;5.93;4.50;;;;;;;16.26;100.00;96008.59;5024051;28;20207;-79
2022/07/28 05:43:50;;;;;;;7.83;4.67;;;;;;;16.31;100.00;96015.97;5023719;28;20198;-79
2022/07/28 05:46:17;;;;;;;5.57;4.90;;;;;;;16.26;100.00;96008.59;5026522;28;20275;-79
2022/07/28 05:48:45;;;;;;;5.53;4.87;;;;;;;16.26;100.00;96008.59;5024074;28;20257;-79
2022/07/28 05:51:12;;;;;;;5.17;4.67;;;;;;;16.28;100.00;96006.44;5019053;28;20238;-79
2022/07/28 05:53:39;;;;;;;5.57;4.97;;;;;;;16.30;100.00;96006.16;5020694;28;20203;-79
2022/07/28 05:56:07;;;;;;;5.53;4.97;;;;;;;16.36;100.00;96014.03;5028443;28;20242;-79
2022/07/28 05:58:35;;;;;;;4.83;4.33;;;;;;;16.41;100.00;96005.88;5022699;28;20201;-79
2022/07/28 06:01:04;;;;;;;5.13;4.63;;;;;;;16.46;100.00;96014.03;5034564;28;20204;-79
2022/07/28 06:03:33;;;;;;;6.20;5.00;;;;;;;16.48;100.00;96008.31;5046791;28;20202;-79
2022/07/28 06:06:01;;;;;;;6.80;4.73;;;;;;;16.45;100.00;96006.13;5021355;28;20199;-79
2022/07/28 06:08:28;;;;;;;8.33;4.50;;;;;;;16.43;100.00;96002.84;5023328;28;20298;-79
2022/07/28 06:11:00;;;;;;;5.73;4.50;;;;;;;16.43;100.00;96009.13;5014065;28;20269;-79
2022/07/28 06:13:28;;;;;;;6.67;4.73;;;;;;;16.47;100.00;96003.94;5050998;28;20281;-79
2022/07/28 06:15:58;;;;;;;5.23;4.60;;;;;;;16.50;100.00;96008.84;5012248;28;20211;-79
2022/07/28 06:18:25;;;;;;;5.30;4.80;;;;;;;16.54;100.00;95999.84;5045081;28;20242;-79
2022/07/28 06:20:52;;;;;;;5.90;4.50;;;;;;;16.53;100.00;95998.19;5014161;28;20226;-79
2022/07/28 06:23:22;;;;;;;5.40;4.53;;;;;;;16.58;100.00;95998.22;5049588;28;20204;-79
2022/07/28 06:25:49;;;;;;;4.50;4.10;;;;;;;16.63;100.00;95987.31;5020899;28;20230;-79
2022/07/28 06:28:17;;;;;;;6.40;4.80;;;;;;;16.66;100.00;95985.94;5023884;28;20234;-79
2022/07/28 06:30:44;;;;;;;4.53;4.13;;;;;;;16.69;100.00;95992.75;5022059;28;20215;-79
2022/07/28 06:33:13;;;;;;;7.87;4.80;;;;;;;16.75;100.00;95989.75;5022071;28;20209;-79
2022/07/28 06:35:40;;;;;;;5.10;4.47;;;;;;;16.81;100.00;95987.81;5018278;28;20210;-79
2022/07/28 06:38:07;;;;;;;5.30;4.53;;;;;;;16.85;100.00;95986.13;5033235;28;20260;-76
2022/07/28 06:40:34;;;;;;;6.10;5.10;;;;;;;16.88;100.00;95985.59;5031590;28;20211;-77
2022/07/28 06:43:01;;;;;;;4.93;4.47;;;;;;;16.84;100.00;95976.34;5019960;28;20203;-77
2022/07/28 06:45:29;;;;;;;5.53;4.90;;;;;;;16.84;100.00;95979.06;5041577;28;20206;-78
2022/07/28 06:47:56;;;;;;;5.73;4.70;;;;;;;16.88;100.00;95982.84;5011520;28;20230;-77
2022/07/28 06:50:25;;;;;;;5.60;5.00;;;;;;;16.81;100.00;95985.88;5051457;28;20218;-76
2022/07/28 06:52:52;;;;;;;5.37;4.83;;;;;;;16.82;100.00;95976.63;5015691;28;20222;-77
2022/07/28 06:55:19;;;;;;;6.33;4.57;;;;;;;16.95;100.00;95978.72;5011705;28;20207;-77
2022/07/28 06:57:46;;;;;;;6.40;4.63;;;;;;;17.03;100.00;95972.69;5012804;28;20222;-77
2022/07/28 07:00:14;;;;;;;5.47;4.97;;;;;;;17.07;100.00;95975.69;5049583;28;20202;-76
2022/07/28 07:02:42;;;;;;;5.10;4.40;;;;;;;17.07;100.00;95972.16;5013463;28;20214;-77
2022/07/28 07:05:11;;;;;;;5.40;4.90;;;;;;;17.12;100.00;95989.28;5020952;28;20309;-78
2022/07/28 07:07:39;;;;;;;4.90;4.40;;;;;;;17.14;100.00;95987.13;5031120;28;20277;-77
2022/07/28 07:10:07;;;;;;;6.73;5.07;;;;;;;17.13;100.00;95974.56;5024814;28;20217;-77
2022/07/28 07:12:35;;;;;;;5.33;4.67;;;;;;;17.18;100.00;95971.00;5018125;28;20195;-77
2022/07/28 07:15:03;;;;;;;7.43;5.27;;;;;;;17.19;100.00;95978.06;5017753;28;20294;-77
2022/07/28 07:17:30;;;;;;;5.53;4.60;;;;;;;17.23;100.00;95974.53;5018827;28;20208;-78
2022/07/28 07:19:57;;;;;;;6.37;4.60;;;;;;;17.33;100.00;95968.19;5037376;28;20243;-79
2022/07/28 07:22:24;;;;;;;5.63;4.80;;;;;;;17.75;100.00;95965.75;5026507;28;20215;-80
2022/07/28 07:24:53;;;;;;;5.80;4.20;;;;;;;18.21;100.00;95964.53;5020270;28;20207;-80
2022/07/28 07:27:20;;;;;;;5.57;4.43;;;;;;;18.68;100.00;95969.28;5023130;28;20301;-81
2022/07/28 07:29:47;;;;;;;4.17;3.77;;;;;;;18.80;100.00;95962.28;5021959;28;20235;-81
2022/07/28 07:32:14;;;;;;;4.53;3.53;;;;;;;19.02;100.00;95963.69;5022454;28;20211;-81
2022/07/28 07:34:41;;;;;;;4.73;4.27;;;;;;;19.47;100.00;95962.25;5029797;28;20206;-81
2022/07/28 07:37:12;;;;;;;5.80;3.60;;;;;;;19.84;100.00;95951.28;5019402;28;20334;-81
2022/07/28 07:39:40;;;;;;;4.23;3.70;;;;;;;19.98;100.00;95954.09;5022840;28;20208;-81
2022/07/28 07:42:09;;;;;;;5.18;3.53;;;;;;;20.19;100.00;95952.63;5024034;28;20214;-81
2022/07/28 07:44:36;;;;;;;5.15;3.75;;;;;;;20.31;100.00;95958.44;5027305;28;20225;-81
2022/07/28 07:47:03;;;;;;;3.90;3.50;;;;;;;20.76;100.00;95955.97;5022560;28;20195;-81
2022/07/28 07:49:30;;;;;;;5.93;3.58;;;;;;;21.05;100.00;95952.94;5026343;28;20222;-81
2022/07/28 07:51:57;;;;;;;4.95;3.47;;;;;;;21.30;100.00;95946.13;5025674;28;20199;-81
2022/07/28 07:54:24;;;;;;;5.20;3.55;;;;;;;21.42;99.41;95955.47;5020412;28;20212;-81
2022/07/28 07:56:52;;;;;;;4.35;3.70;;;;;;;21.35;98.57;95954.25;5023290;28;20223;-81
2022/07/28 07:59:20;;;;;;;4.75;3.88;;;;;;;21.51;96.21;95955.56;5019099;28;20211;-81
2022/07/28 08:01:52;;;;;;;7.00;4.18;;;;;;;21.94;92.68;95946.84;5021501;28;20226;-82
2022/07/28 08:04:19;;;;;;;4.78;4.22;;;;;;;22.29;87.10;95937.72;5024281;28;20213;-82
2022/07/28 08:06:46;;;;;;;5.35;3.90;;;;;;;22.62;88.08;95941.00;5021039;28;20207;-81
2022/07/28 08:09:13;;;;;;;4.55;4.15;;;;;;;22.78;84.13;95941.41;5020796;28;20277;-81
2022/07/28 08:11:41;;;;;;;5.85;4.35;;;;;;;22.95;83.59;95944.22;5024982;28;20209;-80
2022/07/28 08:14:08;;;;;;;4.68;3.78;;;;;;;23.02;85.74;95937.13;5027136;28;20242;-81
2022/07/28 08:16:37;;;;;;;4.80;4.20;;;;;;;22.98;85.72;95944.38;5024062;28;20308;-80
2022/07/28 08:19:04;;;;;;;6.18;4.22;;;;;;;23.28;81.96;95942.69;5024471;28;20258;-81
2022/07/28 08:21:31;;;;;;;6.07;3.90;;;;;;;23.49;80.56;95939.34;5024898;28;20209;-80
2022/07/28 08:23:58;;;;;;;7.80;3.83;;;;;;;23.58;79.00;95935.47;5055642;28;20264;-80
2022/07/28 08:26:27;;;;;;;6.75;4.10;;;;;;;23.80;78.17;95933.72;5023930;28;20215;-80
2022/07/28 08:28:55;;;;;;;5.18;4.30;;;;;;;23.94;78.02;95937.91;5024571;28;20224;-80
2022/07/28 08:31:22;;;;;;;5.03;4.47;;;;;;;23.76;79.89;95931.59;5025739;28;20211;-80
2022/07/28 08:33:51;;;;;;;4.70;3.72;;;;;;;23.92;79.87;95931.91;5020133;28;20204;-80
2022/07/28 08:36:18;;;;;;;9.02;4.72;;;;;;;23.93;78.57;95933.53;5051776;28;20210;-80
2022/07/28 08:38:45;;;;;;;4.20;3.80;;;;;;;23.92;79.84;95942.94;5026937;28;20295;-80
2022/07/28 08:41:20;;;;;;;4.70;4.18;;;;;;;23.98;82.05;95935.31;5019310;28;20218;-80
2022/07/28 08:43:49;;;;;;;5.93;4.15;;;;;;;23.93;80.42;95930.78;5026858;28;20198;-80
2022/07/28 08:46:19;;;;;;;4.40;3.92;;;;;;;23.91;80.55;95932.22;5022634;28;20206;-80
2022/07/28 08:48:48;;;;;;;5.25;4.28;;;;;;;23.95;77.84;95934.03;5023221;28;20219;-80
2022/07/28 08:51:16;;;;;;;4.60;3.83;;;;;;;24.01;79.22;95942.94;5023998;28;20202;-80
2022/07/28 08:53:44;;;;;;;4.53;4.10;;;;;;;24.12;79.63;95934.00;5023124;28;20210;-80
2022/07/28 08:56:14;;;;;;;5.70;4.13;;;;;;;24.27;80.21;95938.22;5014295;28;20226;-80
2022/07/28 08:58:41;;;;;;;4.50;4.07;;;;;;;24.08;81.06;95930.25;5042474;28;20214;-80
2022/07/28 09:01:09;;;;;;;5.07;4.22;;;;;;;24.24;77.99;95924.28;5025824;28;20226;-80
2022/07/28 09:03:37;;;;;;;6.20;3.80;;;;;;;;;;5025143;28;20210;-80
2022/07/28 09:06:05;;;;;;;4.15;3.60;;;;;;;24.54;74.39;95931.50;5024909;28;20210;-80
2022/07/28 09:08:33;;;;;;;6.43;3.90;;;;;;;24.59;75.12;95931.31;5056683;28;20331;-81
2022/07/28 09:11:00;;;;;;;6.07;3.97;;;;;;;24.79;72.39;95930.59;5022252;28;20208;-80
2022/07/28 09:13:27;;;;;;;5.13;4.32;;;;;;;24.75;72.87;95926.09;5017700;28;20261;-80
2022/07/28 09:15:54;;;;;;;4.57;4.07;;;;;;;24.62;74.73;95935.38;5011937;28;20207;-83
2022/07/28 09:18:21;;;;;;;8.10;4.22;;;;;;;24.77;73.72;95938.41;5036600;28;20302;-82
2022/07/28 09:20:49;;;;;;;5.13;3.78;;;;;;;24.75;74.44;95937.91;5018450;28;20218;-82
2022/07/28 09:23:16;;;;;;;5.45;3.88;;;;;;;25.08;73.19;95937.34;5035934;28;20267;-82
2022/07/28 09:25:44;;;;;;;7.95;4.57;;;;;;;25.26;73.40;95934.13;5016800;28;20198;-83
2022/07/28 09:28:13;;;;;;;5.18;3.95;;;;;;;25.43;72.62;95944.28;5017510;28;20264;-82
2022/07/28 09:30:42;;;;;;;6.53;4.10;;;;;;;25.35;70.70;95931.31;5020996;28;20202;-82
2022/07/28 09:33:18;;;;;;;5.18;3.60;;;;;;;25.44;70.73;95929.31;5031446;28;20221;-83
2022/07/28 09:35:48;;;;;;;4.75;3.33;;;;;;;25.66;69.88;95935.72;5033298;28;20214;-83
2022/07/28 09:38:16;;;;;;;6.47;3.97;;;;;;;25.59;68.85;95933.47;5026308;28;20210;-83
2022/07/28 09:40:57;;;;;;;4.15;3.78;;;;;;;25.53;70.65;95932.00;5018189;28;20207;-83
2022/07/28 09:43:35;;;;;;;5.88;3.63;;;;;;;25.70;69.23;95931.91;5009930;28;20206;-83
2022/07/28 09:46:07;;;;;;;4.00;3.70;;;;;;;25.77;69.45;95931.41;5041097;28;20210;-83
2022/07/28 09:48:35;;;;;;;4.30;3.90;;;;;;;25.68;70.25;95922.38;5007433;28;20226;-82
2022/07/28 09:51:13;;;;;;;4.13;3.65;;;;;;;25.96;68.94;95917.88;5007799;28;20196;-83
2022/07/28 09:53:41;;;;;;;4.10;3.70;;;;;;;26.06;67.49;95916.66;5007696;28;20214;-83
2022/07/28 09:56:11;;;;;;;5.80;4.13;;;;;;;26.08;68.03;95925.44;5007751;28;20239;-81
2022/07/28 09:58:39;;;;;;;4.10;3.70;;;;;;;25.88;68.15;95907.69;5021745;28;20207;-82
2022/07/28 10:01:09;;;;;;;3.90;3.50;;;;;;;26.05;67.26;95909.50;5009186;28;20207;-81
2022/07/28 10:03:37;;;;;;;5.68;3.72;;;;;;;26.03;65.73;95912.59;5043482;28;20222;-82
2022/07/28 10:06:07;;;;;;;4.00;3.70;;;;;;;25.89;68.13;95906.56;5015253;28;20206;-82
2022/07/28 10:08:47;;;;;;;4.50;3.63;;;;;;;26.13;69.94;95895.59;5006966;28;20234;-82
2022/07/28 10:11:18;;;;;;;6.65;3.70;;;;;;;26.16;66.21;95894.91;5013528;28;20336;-82
2022/07/28 10:14:02;;;;;;;5.10;4.03;;;;;;;26.27;67.79;95898.91;5040266;28;20406;-81
2022/07/28 10:16:30;;;;;;;5.75;3.80;;;;;;;26.10;67.39;95885.22;5009786;28;20207;-81
2022/07/28 10:19:00;;;;;;;5.18;3.67;;;;;;;26.16;68.46;95889.38;5021912;28;20238;-82
2022/07/28 10:21:30;;;;;;;5.82;4.22;;;;;;;26.22;68.12;95888.00;5028778;28;20207;-81
2022/07/28 10:24:00;;;;;;;4.65;4.07;;;;;;;26.16;69.61;95881.06;5028484;28;20210;-80
2022/07/28 10:26:32;;;;;;;4.55;3.78;;;;;;;26.38;68.39;95875.16;5011400;28;20227;-82
2022/07/28 10:29:05;;;;;;;4.32;3.92;;;;;;;26.51;69.53;95872.44;5012200;28;20247;-81
2022/07/28 10:31:35;;;;;;;5.15;4.03;;;;;;;26.55;68.88;95885.22;5039499;28;20313;-82
2022/07/28 10:34:05;;;;;;;5.32;4.18;;;;;;;26.64;68.29;95879.59;5039904;28;20221;-82
2022/07/28 10:36:35;;;;;;;4.85;3.70;;;;;;;26.86;69.14;95890.25;5008507;28;20284;-81
2022/07/28 10:39:12;;;;;;;6.53;4.30;;;;;;;26.86;68.42;95883.88;5042374;28;20222;-82
2022/07/28 10:41:42;;;;;;;4.07;3.67;;;;;;;27.04;67.90;95879.78;5044265;28;20298;-82
2022/07/28 10:44:13;;;;;;;4.50;4.10;;;;;;;27.14;69.12;95879.28;5008777;28;20215;-82
2022/07/28 10:46:42;;;;;;;6.80;4.25;;;;;;;27.18;69.70;95873.84;5040267;28;20225;-81
2022/07/28 10:49:10;;;;;;;4.20;3.80;;;;;;;27.29;67.13;95870.28;5006546;28;20226;-82
2022/07/28 10:51:39;;;;;;;6.35;3.88;;;;;;;27.25;69.10;95879.63;5009300;28;20321;-81
2022/07/28 10:54:13;;;;;;;5.72;4.20;;;;;;;27.11;69.86;95877.22;5009238;28;20202;-82
2022/07/28 10:56:54;;;;;;;5.20;4.07;;;;;;;27.25;68.86;95876.84;5015175;28;20830;-82
2022/07/28 10:59:51;;;;;;;5.43;3.88;;;;;;;27.37;67.83;95877.66;5039109;28;20202;-82
2022/07/28 11:02:48;;;;;;;5.70;3.78;;;;;;;27.35;67.91;95879.16;5013638;28;20207;-82
2022/07/28 11:05:29;;;;;;;4.55;3.70;;;;;;;27.55;68.41;95878.22;5028770;28;20288;-81
2022/07/28 11:07:59;;;;;;;4.80;3.95;;;;;;;27.73;63.20;95879.53;5027343;28;20305;-82
2022/07/28 11:10:28;;;;;;;4.22;3.83;;;;;;;27.79;63.55;95872.59;5010875;28;20222;-82
2022/07/28 11:12:59;;;;;;;4.32;3.75;;;;;;;27.66;62.97;95878.53;5016597;28;20214;-82
2022/07/28 11:15:34;;;;;;;3.97;3.65;;;;;;;27.60;64.11;95875.19;5006635;28;20214;-82
2022/07/28 11:18:07;;;;;;;4.75;4.00;;;;;;;27.72;65.13;95872.41;5004132;28;20213;-82
2022/07/28 11:21:06;;;;;;;4.78;3.80;;;;;;;28.07;63.77;95878.13;5025219;28;20211;-82
2022/07/28 11:23:55;;;;;;;4.15;3.70;;;;;;;28.10;61.74;95876.63;5008097;28;20207;-82
2022/07/28 11:26:37;;;;;;;3.67;3.38;;;;;;;28.14;61.49;95869.22;5004966;28;20259;-82
2022/07/28 11:29:26;;;;;;;5.78;3.40;;;;;;;28.40;59.66;95868.78;5009722;28;20230;-81
2022/07/28 11:32:03;;;;;;;4.50;3.42;;;;;;;28.50;60.74;95868.22;5021966;28;20219;-81
2022/07/28 11:35:07;;;;;;;5.72;3.80;;;;;;;28.75;59.36;95863.34;5024023;28;20210;-82
2022/07/28 11:38:10;;;;;;;3.72;3.42;;;;;;;28.79;58.52;95867.03;5009199;28;20215;-82
2022/07/28 11:40:42;;;;;;;4.55;3.80;;;;;;;28.82;58.67;95856.00;4996759;28;20240;-83